createdAt,value
2023-04-28T00:00:41.793Z,94677.00
2023-04-28T00:01:41.808Z,94681.00
2023-04-28T00:02:41.901Z,94681.00
2023-04-28T00:03:41.985Z,94681.00
2023-04-28T00:04:41.984Z,94677.00
2023-04-28T00:05:41.979Z,94683.00
2023-04-28T00:06:41.941Z,94679.00
2023-04-28T00:07:41.964Z,94681.00
2023-04-28T00:08:41.992Z,94679.00
2023-04-28T00:09:42.063Z,94681.00
2023-04-28T00:10:42.036Z,94681.00
2023-04-28T00:11:42.054Z,94685.00
2023-04-28T00:12:42.082Z,94683.00
2023-04-28T00:13:42.068Z,94683.00
2023-04-28T00:14:42.107Z,94679.00
2023-04-28T00:15:42.124Z,94677.00
2023-04-28T00:16:42.231Z,94679.00
2023-04-28T00:17:42.237Z,94681.00
2023-04-28T00:18:42.166Z,94679.00
2023-04-28T00:19:42.187Z,94679.00
2023-04-28T00:20:42.197Z,94679.00
2023-04-28T00:21:42.234Z,94681.00
2023-04-28T00:22:42.229Z,94679.00
2023-04-28T00:23:42.270Z,94683.00
2023-04-28T00:24:42.264Z,94683.00
2023-04-28T00:25:42.340Z,94683.00
2023-04-28T00:26:42.299Z,94683.00
2023-04-28T00:27:42.325Z,94681.00
2023-04-28T00:28:42.353Z,94683.00
2023-04-28T00:29:42.367Z,94681.00
2023-04-28T00:30:42.377Z,94683.00
2023-04-28T00:31:42.459Z,94683.00
2023-04-28T00:32:42.419Z,94685.00
2023-04-28T00:33:42.439Z,94685.00
2023-04-28T00:34:42.460Z,94685.00
2023-04-28T00:35:42.491Z,94683.00
2023-04-28T00:36:42.480Z,94685.00
2023-04-28T00:37:42.493Z,94685.00
2023-04-28T00:38:42.504Z,94685.00
2023-04-28T00:39:42.511Z,94685.00
2023-04-28T00:40:42.527Z,94681.00
2023-04-28T00:41:42.582Z,94679.00
2023-04-28T00:42:42.595Z,94677.00
2023-04-28T00:43:42.583Z,94677.00
2023-04-28T00:44:42.587Z,94679.00
2023-04-28T00:45:42.646Z,94679.00
2023-04-28T00:46:42.624Z,94683.00
2023-04-28T00:47:42.676Z,94685.00
2023-04-28T00:48:42.635Z,94683.00
2023-04-28T00:49:42.689Z,94679.00
2023-04-28T00:50:42.709Z,94677.00
2023-04-28T00:51:42.782Z,94675.00
2023-04-28T00:52:42.802Z,94677.00
2023-04-28T00:53:42.833Z,94679.00
2023-04-28T00:54:42.862Z,94679.00
2023-04-28T00:55:42.921Z,94679.00
2023-04-28T00:56:42.969Z,94677.00
2023-04-28T00:57:42.986Z,94675.00
2023-04-28T00:58:43.000Z,94675.00
2023-04-28T00:59:43.029Z,94673.00
2023-04-28T01:00:43.030Z,94675.00
2023-04-28T01:01:43.161Z,94673.00
2023-04-28T01:02:43.132Z,94675.00
2023-04-28T01:03:43.148Z,94675.00
2023-04-28T01:04:43.063Z,94673.00
2023-04-28T01:05:43.041Z,94675.00
2023-04-28T01:06:43.049Z,94671.00
2023-04-28T01:07:43.034Z,94671.00
2023-04-28T01:08:43.054Z,94667.00
2023-04-28T01:09:43.031Z,94665.00
2023-04-28T01:10:43.054Z,94667.00
2023-04-28T01:11:43.071Z,94665.00
2023-04-28T01:12:43.068Z,94667.00
2023-04-28T01:13:43.056Z,94669.00
2023-04-28T01:14:43.059Z,94667.00
2023-04-28T01:15:43.055Z,94665.00
2023-04-28T01:16:43.147Z,94661.00
2023-04-28T01:17:43.094Z,94661.00
2023-04-28T01:18:43.050Z,94656.00
2023-04-28T01:19:43.061Z,94656.00
2023-04-28T01:20:43.043Z,94657.00
2023-04-28T01:21:43.074Z,94656.00
2023-04-28T01:22:43.054Z,94654.00
2023-04-28T01:23:43.030Z,94654.00
2023-04-28T01:24:43.024Z,94652.00
2023-04-28T01:25:43.043Z,94642.00
2023-04-28T01:26:43.065Z,94640.00
2023-04-28T01:27:43.029Z,94640.00
2023-04-28T01:28:43.051Z,94640.00
2023-04-28T01:29:43.094Z,94640.00
2023-04-28T01:30:43.117Z,94642.00
2023-04-28T01:31:43.205Z,94642.00
2023-04-28T01:32:43.210Z,94642.00
2023-04-28T01:33:43.154Z,94638.00
2023-04-28T01:34:43.173Z,94642.00
2023-04-28T01:35:43.195Z,94642.00
2023-04-28T01:36:43.230Z,94650.00
2023-04-28T01:37:43.240Z,94654.00
2023-04-28T01:38:43.253Z,94652.00
2023-04-28T01:39:43.292Z,94654.00
2023-04-28T01:40:43.349Z,94654.00
2023-04-28T01:41:43.362Z,94652.00
2023-04-28T01:42:43.345Z,94650.00
2023-04-28T01:43:43.332Z,94652.00
2023-04-28T01:44:43.346Z,94650.00
2023-04-28T01:45:43.408Z,94654.00
2023-04-28T01:46:43.387Z,94659.00
2023-04-28T01:47:43.433Z,94659.00
2023-04-28T01:48:43.433Z,94654.00
2023-04-28T01:49:43.475Z,94652.00
2023-04-28T01:50:43.451Z,94650.00
2023-04-28T01:51:43.502Z,94638.00
2023-04-28T01:52:43.513Z,94650.00
2023-04-28T01:53:43.512Z,94652.00
2023-04-28T01:54:43.541Z,94654.00
2023-04-28T01:55:43.576Z,94656.00
2023-04-28T01:56:43.626Z,94650.00
2023-04-28T01:57:43.591Z,94650.00
2023-04-28T01:58:43.617Z,94650.00
2023-04-28T01:59:43.621Z,94642.00
2023-04-28T02:00:43.630Z,94640.00
2023-04-28T02:01:43.715Z,94642.00
2023-04-28T02:02:43.732Z,94640.00
2023-04-28T02:03:43.855Z,94640.00
2023-04-28T02:04:43.687Z,94638.00
2023-04-28T02:05:43.664Z,94638.00
2023-04-28T02:06:43.711Z,94638.00
2023-04-28T02:07:43.728Z,94634.00
2023-04-28T02:08:43.733Z,94632.00
2023-04-28T02:09:43.785Z,94632.00
2023-04-28T02:10:43.791Z,94630.00
2023-04-28T02:11:43.815Z,94630.00
2023-04-28T02:12:43.787Z,94628.00
2023-04-28T02:13:43.810Z,94628.00
2023-04-28T02:14:43.785Z,94626.00
2023-04-28T02:15:43.893Z,94626.00
2023-04-28T02:16:43.785Z,94626.00
2023-04-28T02:17:43.823Z,94626.00
2023-04-28T02:18:43.817Z,94620.00
2023-04-28T02:19:43.836Z,94620.00
2023-04-28T02:20:43.826Z,94620.00
2023-04-28T02:21:43.827Z,94616.00
2023-04-28T02:22:43.844Z,94618.00
2023-04-28T02:23:43.868Z,94618.00
2023-04-28T02:24:43.844Z,94618.00
2023-04-28T02:25:43.853Z,94620.00
2023-04-28T02:26:43.852Z,94620.00
2023-04-28T02:27:43.842Z,94622.00
2023-04-28T02:28:43.824Z,94620.00
2023-04-28T02:29:43.845Z,94618.00
2023-04-28T02:30:43.841Z,94620.00
2023-04-28T02:31:43.893Z,94620.00
2023-04-28T02:32:43.877Z,94622.00
2023-04-28T02:33:43.835Z,94622.00
2023-04-28T02:34:43.836Z,94620.00
2023-04-28T02:35:43.845Z,94620.00
2023-04-28T02:36:43.839Z,94620.00
2023-04-28T02:37:43.832Z,94616.00
2023-04-28T02:38:43.839Z,94614.00
2023-04-28T02:39:43.837Z,94612.00
2023-04-28T02:40:43.885Z,94609.00
2023-04-28T02:41:43.910Z,94603.00
2023-04-28T02:42:43.914Z,94601.00
2023-04-28T02:43:43.948Z,94601.00
2023-04-28T02:44:43.973Z,94595.00
2023-04-28T02:45:44.047Z,94595.00
2023-04-28T02:46:44.119Z,94593.00
2023-04-28T02:47:44.104Z,94591.00
2023-04-28T02:48:44.044Z,94591.00
2023-04-28T02:49:44.056Z,94589.00
2023-04-28T02:50:44.041Z,94591.00
2023-04-28T02:51:44.042Z,94589.00
2023-04-28T02:52:44.084Z,94585.00
2023-04-28T02:53:44.103Z,94585.00
2023-04-28T02:54:44.093Z,94585.00
2023-04-28T02:55:44.115Z,94585.00
2023-04-28T02:56:44.134Z,94589.00
2023-04-28T02:57:44.130Z,94585.00
2023-04-28T02:58:44.155Z,94587.00
2023-04-28T02:59:44.149Z,94583.00
2023-04-28T03:00:44.189Z,94583.00
2023-04-28T03:01:44.279Z,94585.00
2023-04-28T03:02:44.286Z,94589.00
2023-04-28T03:03:44.305Z,94589.00
2023-04-28T03:04:44.243Z,94589.00
2023-04-28T03:05:44.183Z,94583.00
2023-04-28T03:06:44.189Z,94585.00
2023-04-28T03:07:44.211Z,94581.00
2023-04-28T03:08:44.257Z,94583.00
2023-04-28T03:09:44.306Z,94585.00
2023-04-28T03:10:44.379Z,94581.00
2023-04-28T03:11:44.438Z,94581.00
2023-04-28T03:12:44.446Z,94583.00
2023-04-28T03:13:44.448Z,94583.00
2023-04-28T03:14:44.505Z,94577.00
2023-04-28T03:15:44.538Z,94577.00
2023-04-28T03:16:44.551Z,94575.00
2023-04-28T03:17:44.535Z,94569.00
2023-04-28T03:18:44.536Z,94567.00
2023-04-28T03:19:44.515Z,94567.00
2023-04-28T03:20:44.513Z,94565.00
2023-04-28T03:21:44.532Z,94569.00
2023-04-28T03:22:44.538Z,94575.00
2023-04-28T03:23:44.537Z,94577.00
2023-04-28T03:24:44.540Z,94579.00
2023-04-28T03:25:44.664Z,94579.00
2023-04-28T03:26:44.533Z,94579.00
2023-04-28T03:27:44.562Z,94581.00
2023-04-28T03:28:44.533Z,94579.00
2023-04-28T03:29:44.526Z,94579.00
2023-04-28T03:30:44.563Z,94577.00
2023-04-28T03:31:44.582Z,94579.00
2023-04-28T03:32:44.553Z,94581.00
2023-04-28T03:33:44.536Z,94579.00
2023-04-28T03:34:44.528Z,94577.00
2023-04-28T03:35:44.533Z,94579.00
2023-04-28T03:36:44.545Z,94579.00
2023-04-28T03:37:44.576Z,94579.00
2023-04-28T03:38:44.574Z,94579.00
2023-04-28T03:39:44.602Z,94577.00
2023-04-28T03:40:44.625Z,94577.00
2023-04-28T03:41:44.688Z,94577.00
2023-04-28T03:42:44.673Z,94573.00
2023-04-28T03:43:44.717Z,94571.00
2023-04-28T03:44:44.719Z,94571.00
2023-04-28T03:45:44.766Z,94573.00
2023-04-28T03:46:44.796Z,94575.00
2023-04-28T03:47:44.846Z,94571.00
2023-04-28T03:48:44.823Z,94575.00
2023-04-28T03:49:44.818Z,94575.00
2023-04-28T03:50:44.846Z,94575.00
2023-04-28T03:51:44.854Z,94571.00
2023-04-28T03:52:44.887Z,94571.00
2023-04-28T03:53:44.897Z,94569.00
2023-04-28T03:54:44.902Z,94571.00
2023-04-28T03:55:44.894Z,94569.00
2023-04-28T03:56:44.876Z,94569.00
2023-04-28T03:57:44.885Z,94569.00
2023-04-28T03:58:44.934Z,94569.00
2023-04-28T03:59:44.980Z,94569.00
2023-04-28T04:00:45.001Z,94573.00
2023-04-28T04:01:45.007Z,94575.00
2023-04-28T04:02:45.237Z,94577.00
2023-04-28T04:03:45.185Z,94577.00
2023-04-28T04:04:45.329Z,94577.00
2023-04-28T04:05:45.141Z,94575.00
2023-04-28T04:06:45.129Z,94575.00
2023-04-28T04:07:45.106Z,94573.00
2023-04-28T04:08:45.124Z,94573.00
2023-04-28T04:09:45.145Z,94573.00
2023-04-28T04:10:45.130Z,94573.00
2023-04-28T04:11:45.172Z,94573.00
2023-04-28T04:12:45.228Z,94575.00
2023-04-28T04:13:45.175Z,94577.00
2023-04-28T04:14:45.181Z,94581.00
2023-04-28T04:15:45.223Z,94583.00
2023-04-28T04:16:45.188Z,94585.00
2023-04-28T04:17:45.221Z,94585.00
2023-04-28T04:18:45.207Z,94587.00
2023-04-28T04:19:45.239Z,94591.00
2023-04-28T04:20:45.268Z,94591.00
2023-04-28T04:21:45.277Z,94589.00
2023-04-28T04:22:45.322Z,94591.00
2023-04-28T04:23:45.318Z,94589.00
2023-04-28T04:24:45.343Z,94589.00
2023-04-28T04:25:45.336Z,94589.00
2023-04-28T04:26:45.343Z,94587.00
2023-04-28T04:27:45.339Z,94587.00
2023-04-28T04:28:45.347Z,94587.00
2023-04-28T04:29:45.360Z,94585.00
2023-04-28T04:30:45.362Z,94587.00
2023-04-28T04:31:45.477Z,94589.00
2023-04-28T04:32:45.434Z,94587.00
2023-04-28T04:33:45.389Z,94587.00
2023-04-28T04:34:45.402Z,94589.00
2023-04-28T04:35:45.409Z,94589.00
2023-04-28T04:36:45.427Z,94589.00
2023-04-28T04:37:45.462Z,94591.00
2023-04-28T04:38:45.458Z,94591.00
2023-04-28T04:39:45.446Z,94591.00
2023-04-28T04:40:45.452Z,94593.00
2023-04-28T04:41:45.456Z,94595.00
2023-04-28T04:42:45.463Z,94591.00
2023-04-28T04:43:45.456Z,94593.00
2023-04-28T04:44:45.482Z,94587.00
2023-04-28T04:45:45.568Z,94587.00
2023-04-28T04:46:45.531Z,94591.00
2023-04-28T04:47:45.570Z,94589.00
2023-04-28T04:48:45.535Z,94595.00
2023-04-28T04:49:45.529Z,94603.00
2023-04-28T04:50:45.527Z,94599.00
2023-04-28T04:51:45.510Z,94603.00
2023-04-28T04:52:45.518Z,94601.00
2023-04-28T04:53:45.532Z,94606.00
2023-04-28T04:54:45.529Z,94606.00
2023-04-28T04:55:45.511Z,94611.00
2023-04-28T04:56:45.520Z,94614.00
2023-04-28T04:57:45.508Z,94616.00
2023-04-28T04:58:45.578Z,94622.00
2023-04-28T04:59:45.529Z,94620.00
2023-04-28T05:00:45.518Z,94620.00
2023-04-28T05:01:45.577Z,94620.00
2023-04-28T05:02:45.757Z,94618.00
2023-04-28T05:03:45.648Z,94620.00
2023-04-28T05:04:45.786Z,94618.00
2023-04-28T05:05:46.358Z,94626.00
2023-04-28T05:06:45.553Z,94622.00
2023-04-28T05:07:45.554Z,94624.00
2023-04-28T05:08:45.546Z,94626.00
2023-04-28T05:09:45.576Z,94630.00
2023-04-28T05:10:45.609Z,94628.00
2023-04-28T05:11:45.678Z,94632.00
2023-04-28T05:12:48.354Z,94634.00
2023-04-28T05:13:45.662Z,94632.00
2023-04-28T05:14:45.661Z,94636.00
2023-04-28T05:15:45.646Z,94640.00
2023-04-28T05:16:45.736Z,94642.00
2023-04-28T05:17:45.652Z,94642.00
2023-04-28T05:18:45.622Z,94652.00
2023-04-28T05:19:45.633Z,94642.00
2023-04-28T05:20:45.627Z,94652.00
2023-04-28T05:21:45.610Z,94654.00
2023-04-28T05:22:45.604Z,94652.00
2023-04-28T05:23:45.605Z,94659.00
2023-04-28T05:24:45.584Z,94663.00
2023-04-28T05:25:45.628Z,94661.00
2023-04-28T05:26:45.596Z,94661.00
2023-04-28T05:27:45.583Z,94663.00
2023-04-28T05:28:45.575Z,94657.00
2023-04-28T05:29:45.567Z,94659.00
2023-04-28T05:30:45.550Z,94661.00
2023-04-28T05:31:45.585Z,94663.00
2023-04-28T05:32:45.570Z,94667.00
2023-04-28T05:33:45.543Z,94665.00
2023-04-28T05:34:45.529Z,94669.00
2023-04-28T05:35:45.534Z,94667.00
2023-04-28T05:36:45.858Z,94669.00
2023-04-28T05:37:45.521Z,94673.00
2023-04-28T05:38:45.520Z,94675.00
2023-04-28T05:39:45.496Z,94677.00
2023-04-28T05:40:45.484Z,94679.00
2023-04-28T05:41:45.496Z,94679.00
2023-04-28T05:42:45.481Z,94679.00
2023-04-28T05:43:45.465Z,94679.00
2023-04-28T05:44:45.497Z,94683.00
2023-04-28T05:45:45.481Z,94687.00
2023-04-28T05:46:45.477Z,94683.00
2023-04-28T05:47:45.461Z,94689.00
2023-04-28T05:48:45.440Z,94695.00
2023-04-28T05:49:45.467Z,94697.00
2023-04-28T05:50:45.428Z,94695.00
2023-04-28T05:51:45.429Z,94689.00
2023-04-28T05:52:45.428Z,94691.00
2023-04-28T05:53:45.401Z,94693.00
2023-04-28T05:54:45.406Z,94695.00
2023-04-28T05:55:45.400Z,94704.00
2023-04-28T05:56:45.395Z,94703.00
2023-04-28T05:57:52.357Z,94704.00
2023-04-28T05:58:46.374Z,94704.00
2023-04-28T05:59:45.381Z,94704.00
2023-04-28T06:00:45.387Z,94704.00
2023-04-28T06:01:45.369Z,94701.00
2023-04-28T06:02:45.483Z,94701.00
2023-04-28T06:03:45.605Z,94703.00
2023-04-28T06:04:45.607Z,94706.00
2023-04-28T06:05:45.624Z,94704.00
2023-04-28T06:06:45.372Z,94704.00
2023-04-28T06:07:45.348Z,94710.00
2023-04-28T06:08:45.328Z,94708.00
2023-04-28T06:09:45.357Z,94710.00
2023-04-28T06:10:45.416Z,94708.00
2023-04-28T06:11:45.464Z,94712.00
2023-04-28T06:12:45.510Z,94714.00
2023-04-28T06:13:45.549Z,94714.00
2023-04-28T06:14:45.612Z,94718.00
2023-04-28T06:15:45.675Z,94714.00
2023-04-28T06:16:45.705Z,94718.00
2023-04-28T06:17:45.924Z,94716.00
2023-04-28T06:18:46.856Z,94714.00
2023-04-28T06:19:45.970Z,94714.00
2023-04-28T06:20:46.019Z,94720.00
2023-04-28T06:21:46.081Z,94720.00
2023-04-28T06:22:46.121Z,94720.00
2023-04-28T06:23:46.169Z,94722.00
2023-04-28T06:24:46.178Z,94718.00
2023-04-28T06:25:46.222Z,94720.00
2023-04-28T06:26:46.264Z,94718.00
2023-04-28T06:27:46.306Z,94720.00
2023-04-28T06:28:46.366Z,94720.00
2023-04-28T06:29:46.392Z,94722.00
2023-04-28T06:30:46.423Z,94712.00
2023-04-28T06:31:46.935Z,94714.00
2023-04-28T06:32:46.545Z,94716.00
2023-04-28T06:33:46.568Z,94720.00
2023-04-28T06:34:46.639Z,94720.00
2023-04-28T06:35:46.652Z,94718.00
2023-04-28T06:36:46.863Z,94718.00
2023-04-28T06:37:46.766Z,94718.00
2023-04-28T06:38:46.812Z,94720.00
2023-04-28T06:39:46.854Z,94722.00
2023-04-28T06:40:46.904Z,94722.00
2023-04-28T06:41:46.931Z,94720.00
2023-04-28T06:42:47.367Z,94720.00
2023-04-28T06:43:47.032Z,94722.00
2023-04-28T06:44:47.091Z,94720.00
2023-04-28T06:45:47.112Z,94726.00
2023-04-28T06:46:47.162Z,94724.00
2023-04-28T06:47:47.196Z,94732.00
2023-04-28T06:48:47.160Z,94732.00
2023-04-28T06:49:47.165Z,94732.00
2023-04-28T06:50:47.205Z,94732.00
2023-04-28T06:51:47.248Z,94734.00
2023-04-28T06:52:47.391Z,94732.00
2023-04-28T06:53:47.307Z,94730.00
2023-04-28T06:54:47.317Z,94732.00
2023-04-28T06:55:47.364Z,94730.00
2023-04-28T06:56:47.928Z,94732.00
2023-04-28T06:57:47.871Z,94732.00
2023-04-28T06:58:47.431Z,94730.00
2023-04-28T06:59:47.454Z,94732.00
2023-04-28T07:00:47.487Z,94734.00
2023-04-28T07:01:47.510Z,94732.00
2023-04-28T07:02:47.669Z,94732.00
2023-04-28T07:03:47.661Z,94732.00
2023-04-28T07:04:47.602Z,94734.00
2023-04-28T07:05:47.615Z,94734.00
2023-04-28T07:06:47.745Z,94732.00
2023-04-28T07:07:47.887Z,94734.00
2023-04-28T07:08:47.682Z,94732.00
2023-04-28T07:09:47.722Z,94736.00
2023-04-28T07:10:47.730Z,94732.00
2023-04-28T07:11:47.766Z,94732.00
2023-04-28T07:12:47.808Z,94730.00
2023-04-28T07:13:47.800Z,94732.00
2023-04-28T07:14:47.819Z,94728.00
2023-04-28T07:15:48.021Z,94730.00
2023-04-28T07:16:47.971Z,94728.00
2023-04-28T07:17:48.452Z,94730.00
2023-04-28T07:18:47.933Z,94732.00
2023-04-28T07:19:47.940Z,94730.00
2023-04-28T07:20:47.951Z,94734.00
2023-04-28T07:21:47.975Z,94728.00
2023-04-28T07:22:48.011Z,94732.00
2023-04-28T07:23:48.026Z,94732.00
2023-04-28T07:24:48.080Z,94734.00
2023-04-28T07:25:48.107Z,94732.00
2023-04-28T07:26:48.170Z,94728.00
2023-04-28T07:27:48.182Z,94730.00
2023-04-28T07:28:48.199Z,94728.00
2023-04-28T07:29:48.305Z,94726.00
2023-04-28T07:30:48.249Z,94726.00
2023-04-28T07:31:48.306Z,94724.00
2023-04-28T07:32:48.468Z,94722.00
2023-04-28T07:33:48.325Z,94724.00
2023-04-28T07:34:48.333Z,94724.00
2023-04-28T07:35:48.363Z,94730.00
2023-04-28T07:36:48.351Z,94734.00
2023-04-28T07:37:48.438Z,94738.00
2023-04-28T07:38:48.373Z,94736.00
2023-04-28T07:39:48.401Z,94751.00
2023-04-28T07:40:48.473Z,94746.00
2023-04-28T07:41:48.542Z,94736.00
2023-04-28T07:42:48.594Z,94750.00
2023-04-28T07:43:48.637Z,94746.00
2023-04-28T07:44:48.672Z,94748.00
2023-04-28T07:45:48.798Z,94748.00
2023-04-28T07:46:50.895Z,94748.00
2023-04-28T07:47:48.805Z,94751.00
2023-04-28T07:48:48.770Z,94750.00
2023-04-28T07:49:48.749Z,94751.00
2023-04-28T07:50:48.750Z,94751.00
2023-04-28T07:51:48.966Z,94750.00
2023-04-28T07:52:48.928Z,94742.00
2023-04-28T07:53:48.736Z,94742.00
2023-04-28T07:54:48.735Z,94746.00
2023-04-28T07:55:48.733Z,94751.00
2023-04-28T07:56:48.715Z,94755.00
2023-04-28T07:57:48.916Z,94753.00
2023-04-28T07:58:48.705Z,94750.00
2023-04-28T07:59:48.707Z,94751.00
2023-04-28T08:00:48.669Z,94746.00
2023-04-28T08:01:48.666Z,94753.00
2023-04-28T08:02:48.774Z,94755.00
2023-04-28T08:03:48.863Z,94757.00
2023-04-28T08:04:48.767Z,94755.00
2023-04-28T08:05:48.681Z,94753.00
2023-04-28T08:06:48.626Z,94753.00
2023-04-28T08:07:48.892Z,94753.00
2023-04-28T08:08:48.902Z,94757.00
2023-04-28T08:09:48.641Z,94759.00
2023-04-28T08:10:48.618Z,94761.00
2023-04-28T08:11:48.599Z,94761.00
2023-04-28T08:12:48.614Z,94759.00
2023-04-28T08:13:48.591Z,94763.00
2023-04-28T08:14:48.575Z,94761.00
2023-04-28T08:15:48.653Z,94761.00
2023-04-28T08:16:48.581Z,94761.00
2023-04-28T08:17:48.606Z,94761.00
2023-04-28T08:18:48.934Z,94763.00
2023-04-28T08:19:48.585Z,94761.00
2023-04-28T08:20:48.541Z,94761.00
2023-04-28T08:21:48.543Z,94753.00
2023-04-28T08:22:48.538Z,94753.00
2023-04-28T08:23:48.901Z,94751.00
2023-04-28T08:24:48.506Z,94755.00
2023-04-28T08:25:48.496Z,94753.00
2023-04-28T08:26:48.505Z,94753.00
2023-04-28T08:27:48.497Z,94755.00
2023-04-28T08:28:48.503Z,94753.00
2023-04-28T08:29:48.489Z,94753.00
2023-04-28T08:30:48.471Z,94755.00
2023-04-28T08:31:48.555Z,94755.00
2023-04-28T08:32:48.497Z,94755.00
2023-04-28T08:33:48.906Z,94755.00
2023-04-28T08:34:48.451Z,94751.00
2023-04-28T08:35:48.461Z,94748.00
2023-04-28T08:36:48.438Z,94750.00
2023-04-28T08:37:48.422Z,94751.00
2023-04-28T08:38:48.438Z,94751.00
2023-04-28T08:39:48.422Z,94748.00
2023-04-28T08:40:48.397Z,94746.00
2023-04-28T08:41:48.415Z,94746.00
2023-04-28T08:42:48.404Z,94750.00
2023-04-28T08:43:48.386Z,94748.00
2023-04-28T08:44:48.384Z,94748.00
2023-04-28T08:45:48.410Z,94748.00
2023-04-28T08:46:48.428Z,94753.00
2023-04-28T08:47:48.380Z,94757.00
2023-04-28T08:48:48.336Z,94761.00
2023-04-28T08:49:48.330Z,94761.00
2023-04-28T08:50:48.322Z,94761.00
2023-04-28T08:51:48.330Z,94761.00
2023-04-28T08:52:48.315Z,94757.00
2023-04-28T08:54:11.743Z,94757.00
2023-04-28T08:54:49.305Z,94755.00
2023-04-28T08:55:48.302Z,94755.00
2023-04-28T08:56:48.306Z,94757.00
2023-04-28T08:57:48.302Z,94755.00
2023-04-28T08:58:48.273Z,94753.00
2023-04-28T08:59:48.273Z,94757.00
2023-04-28T09:00:48.250Z,94757.00
2023-04-28T09:01:48.289Z,94759.00
2023-04-28T09:02:48.380Z,94761.00
2023-04-28T09:03:48.350Z,94763.00
2023-04-28T09:04:48.533Z,94761.00
2023-04-28T09:05:48.337Z,94761.00
2023-04-28T09:06:48.237Z,94759.00
2023-04-28T09:07:48.235Z,94759.00
2023-04-28T09:08:48.264Z,94757.00
2023-04-28T09:09:48.203Z,94755.00
2023-04-28T09:10:48.210Z,94755.00
2023-04-28T09:11:48.200Z,94753.00
2023-04-28T09:12:48.425Z,94753.00
2023-04-28T09:13:48.196Z,94753.00
2023-04-28T09:14:48.186Z,94744.00
2023-04-28T09:15:48.170Z,94744.00
2023-04-28T09:16:48.230Z,94750.00
2023-04-28T09:17:48.192Z,94755.00
2023-04-28T09:18:48.170Z,94753.00
2023-04-28T09:19:48.177Z,94750.00
2023-04-28T09:20:48.177Z,94751.00
2023-04-28T09:22:48.162Z,94748.00
2023-04-28T09:23:48.141Z,94746.00
2023-04-28T09:24:48.127Z,94748.00
2023-04-28T09:25:48.125Z,94750.00
2023-04-28T09:26:48.104Z,94750.00
2023-04-28T09:27:48.101Z,94744.00
2023-04-28T09:28:48.436Z,94742.00
2023-04-28T09:29:48.110Z,94740.00
2023-04-28T09:30:48.101Z,94736.00
2023-04-28T09:31:48.122Z,94734.00
2023-04-28T09:32:48.463Z,94734.00
2023-04-28T09:33:48.301Z,94740.00
2023-04-28T09:34:48.108Z,94740.00
2023-04-28T09:35:48.118Z,94738.00
2023-04-28T09:36:48.139Z,94736.00
2023-04-28T09:37:48.441Z,94742.00
2023-04-28T09:38:48.459Z,94744.00
2023-04-28T09:39:48.332Z,94746.00
2023-04-28T09:40:48.382Z,94744.00
2023-04-28T09:41:48.437Z,94744.00
2023-04-28T09:42:48.416Z,94742.00
2023-04-28T09:43:48.426Z,94738.00
2023-04-28T09:44:48.395Z,94738.00
2023-04-28T09:45:48.417Z,94738.00
2023-04-28T09:46:48.398Z,94744.00
2023-04-28T09:47:48.516Z,94742.00
2023-04-28T09:48:48.436Z,94744.00
2023-04-28T09:49:48.442Z,94748.00
2023-04-28T09:50:48.471Z,94750.00
2023-04-28T09:51:48.505Z,94750.00
2023-04-28T09:52:48.510Z,94751.00
2023-04-28T09:53:48.530Z,94751.00
2023-04-28T09:54:48.550Z,94751.00
2023-04-28T09:55:48.594Z,94753.00
2023-04-28T09:56:48.625Z,94748.00
2023-04-28T09:57:49.934Z,94750.00
2023-04-28T09:58:48.962Z,94748.00
2023-04-28T09:59:48.743Z,94744.00
2023-04-28T10:00:48.778Z,94748.00
2023-04-28T10:01:48.853Z,94748.00
2023-04-28T10:02:48.992Z,94748.00
2023-04-28T10:03:48.986Z,94742.00
2023-04-28T10:04:49.238Z,94742.00
2023-04-28T10:05:49.156Z,94736.00
2023-04-28T10:06:49.042Z,94738.00
2023-04-28T10:07:49.082Z,94738.00
2023-04-28T10:08:49.140Z,94734.00
2023-04-28T10:09:49.193Z,94736.00
2023-04-28T10:10:49.251Z,94736.00
2023-04-28T10:11:49.295Z,94736.00
2023-04-28T10:12:49.345Z,94740.00
2023-04-28T10:13:49.409Z,94740.00
2023-04-28T10:14:49.453Z,94740.00
2023-04-28T10:15:49.729Z,94740.00
2023-04-28T10:16:49.580Z,94742.00
2023-04-28T10:17:49.638Z,94740.00
2023-04-28T10:18:49.699Z,94738.00
2023-04-28T10:19:49.752Z,94736.00
2023-04-28T10:20:49.817Z,94730.00
2023-04-28T10:21:49.828Z,94726.00
2023-04-28T10:22:49.844Z,94724.00
2023-04-28T10:23:49.956Z,94728.00
2023-04-28T10:24:49.843Z,94732.00
2023-04-28T10:25:49.853Z,94728.00
2023-04-28T10:26:49.856Z,94734.00
2023-04-28T10:27:49.946Z,94726.00
2023-04-28T10:28:49.977Z,94726.00
2023-04-28T10:29:50.003Z,94724.00
2023-04-28T10:30:50.046Z,94720.00
2023-04-28T10:31:50.258Z,94722.00
2023-04-28T10:32:50.117Z,94718.00
2023-04-28T10:33:50.103Z,94720.00
2023-04-28T10:34:50.077Z,94718.00
2023-04-28T10:35:50.115Z,94718.00
2023-04-28T10:36:50.168Z,94720.00
2023-04-28T10:37:50.241Z,94720.00
2023-04-28T10:38:50.298Z,94718.00
2023-04-28T10:39:50.336Z,94716.00
2023-04-28T10:40:50.395Z,94712.00
2023-04-28T10:41:50.423Z,94710.00
2023-04-28T10:42:50.450Z,94704.00
2023-04-28T10:43:50.512Z,94704.00
2023-04-28T10:44:50.517Z,94704.00
2023-04-28T10:45:50.656Z,94708.00
2023-04-28T10:46:50.586Z,94708.00
2023-04-28T10:47:50.590Z,94714.00
2023-04-28T10:48:50.597Z,94706.00
2023-04-28T10:49:50.588Z,94703.00
2023-04-28T10:50:50.799Z,94703.00
2023-04-28T10:51:50.604Z,94701.00
2023-04-28T10:52:50.627Z,94699.00
2023-04-28T10:53:50.653Z,94695.00
2023-04-28T10:54:50.657Z,94697.00
2023-04-28T10:55:50.674Z,94695.00
2023-04-28T10:56:50.665Z,94699.00
2023-04-28T10:57:50.684Z,94693.00
2023-04-28T10:58:50.773Z,94693.00
2023-04-28T10:59:50.653Z,94691.00
2023-04-28T11:00:50.700Z,94691.00
2023-04-28T11:01:50.711Z,94691.00
2023-04-28T11:02:50.820Z,94689.00
2023-04-28T11:03:50.868Z,94691.00
2023-04-28T11:04:50.916Z,94693.00
2023-04-28T11:05:50.763Z,94689.00
2023-04-28T11:06:50.769Z,94685.00
2023-04-28T11:07:50.798Z,94683.00
2023-04-28T11:08:50.965Z,94679.00
2023-04-28T11:09:50.874Z,94679.00
2023-04-28T11:10:50.895Z,94677.00
2023-04-28T11:11:50.944Z,94675.00
2023-04-28T11:12:50.976Z,94677.00
2023-04-28T11:13:51.005Z,94671.00
2023-04-28T11:14:51.047Z,94671.00
2023-04-28T11:15:51.150Z,94671.00
2023-04-28T11:16:51.318Z,94669.00
2023-04-28T11:17:51.214Z,94673.00
2023-04-28T11:18:54.236Z,94669.00
2023-04-28T11:19:51.251Z,94671.00
2023-04-28T11:20:51.217Z,94671.00
2023-04-28T11:21:51.217Z,94667.00
2023-04-28T11:22:51.199Z,94661.00
2023-04-28T11:23:51.479Z,94659.00
2023-04-28T11:24:53.957Z,94659.00
2023-04-28T11:25:51.191Z,94661.00
2023-04-28T11:26:51.181Z,94661.00
2023-04-28T11:27:51.158Z,94657.00
2023-04-28T11:28:51.159Z,94656.00
2023-04-28T11:29:51.155Z,94650.00
2023-04-28T11:30:53.101Z,94650.00
2023-04-28T11:31:51.265Z,94654.00
2023-04-28T11:32:51.221Z,94659.00
2023-04-28T11:33:51.131Z,94665.00
2023-04-28T11:34:51.122Z,94677.00
2023-04-28T11:35:51.120Z,94683.00
2023-04-28T11:36:52.267Z,94683.00
2023-04-28T11:37:51.106Z,94691.00
2023-04-28T11:38:51.109Z,94687.00
2023-04-28T11:39:51.115Z,94673.00
2023-04-28T11:40:51.084Z,94675.00
2023-04-28T11:41:51.077Z,94673.00
2023-04-28T11:42:51.059Z,94671.00
2023-04-28T11:43:51.079Z,94675.00
2023-04-28T11:44:51.065Z,94673.00
2023-04-28T11:45:51.072Z,94677.00